Latest Weather Observations for Mount Crawford

IDS60801

Issued at 7:31 pm CST Wednesday 27 May 2015 (issued every 30 minutes, with the page automatically refreshed every 10 minutes)

About weather observations | Map of weather stations | Latest weather observations for SA | Other Formats
Station Details ID: 023878 Name: MT CRAWFORD AWS Lat: -34.73 Lon: 138.93 Height: 525.0 m
Data from the previous 72 hours. | See also: Recent months at Mount Crawford
Date/Time
CST
Temp
°C
App
Temp
°C
Dew
Point
Rel
Hum
%
Delta-T
°C
Wind Press
QNH
hPa
Press
MSL
hPa
Rain
since 9 am
mm
Dir
 
Spd
km/h
Gust
km/h
Spd
kts
Gust
kts
27/07:30pm 12.8 10.3 8.3 74 2.3 N 11 13 6 7 1019.3 1019.0 0.0
27/07:00pm 12.6 10.8 9.4 81 1.7 N 9 11 5 6 1019.3 1019.0 0.0
27/06:30pm 12.5 11.1 9.7 83 1.5 N 7 9 4 5 1019.3 1019.0 0.0
27/06:00pm 12.8 11.7 10.0 83 1.5 NW 6 7 3 4 1019.2 1018.9 0.0
27/05:30pm 13.0 11.3 9.8 81 1.7 NW 9 11 5 6 1019.0 1018.7 0.0
27/05:00pm 13.5 11.4 9.6 77 2.1 WNW 11 15 6 8 1019.0 1018.7 0.0
27/04:30pm 14.1 10.3 9.1 72 2.6 W 19 26 10 14 1019.0 1018.7 0.0
27/04:00pm 14.9 10.8 8.8 67 3.2 WNW 20 28 11 15 1018.9 1018.6 0.0
27/03:30pm 15.5 12.4 8.7 64 3.6 WNW 15 28 8 15 1019.0 1018.7 0.0
27/03:00pm 15.4 12.3 10.2 71 2.8 WNW 17 22 9 12 1019.3 1019.0 0.0
27/02:30pm 15.0 12.0 10.6 75 2.4 WNW 17 24 9 13 1019.2 1018.9 0.0
27/02:00pm 15.6 12.4 9.9 69 3.1 WNW 17 26 9 14 1019.3 1019.0 0.0
27/01:30pm 14.9 11.3 9.9 72 2.7 WNW 19 28 10 15 1019.4 1019.1 0.0
27/01:00pm 15.7 13.0 10.5 71 2.8 NW 15 24 8 13 1019.5 1019.2 0.0
27/12:30pm 14.8 12.4 10.0 73 2.6 NW 13 22 7 12 1019.9 1019.6 0.0
27/12:00pm 14.1 11.9 10.9 81 1.7 WNW 13 20 7 11 1020.3 1020.0 0.0
27/11:30am 13.3 10.9 10.1 81 1.7 NW 13 19 7 10 1020.7 1020.5 0.0
27/11:00am 13.6 11.4 10.9 84 1.5 WNW 13 20 7 11 1021.0 1020.8 0.0
27/10:30am 12.8 10.7 9.8 82 1.6 NW 11 17 6 9 1021.3 1021.0 0.0
27/10:00am 12.5 9.9 9.5 82 1.6 WNW 13 20 7 11 1021.0 1020.8 0.0
27/09:30am 12.2 8.9 9.4 83 1.5 WNW 17 24 9 13 1020.9 1020.7 0.0
27/09:00am 11.4 7.4 9.0 85 1.2 WNW 20 30 11 16 1020.5 1020.2 0.0
27/08:30am 10.9 6.8 8.8 87 1.1 NW 20 28 11 15 1020.6 1020.3 0.0
27/08:00am 10.8 6.7 8.6 86 1.1 NW 20 28 11 15 1020.7 1020.5 0.0
27/07:30am 10.8 7.3 8.6 86 1.1 NW 17 22 9 12 1020.6 1020.3 0.0
27/07:00am 10.6 7.5 8.7 88 1.0 NW 15 20 8 11 1020.4 1020.1 0.0
27/06:30am 11.1 7.6 8.7 85 1.2 NNW 17 20 9 11 1020.2 1019.9 0.0
27/06:00am 11.3 8.2 8.9 85 1.2 NW 15 20 8 11 1020.2 1019.9 0.0
27/05:30am 11.8 8.3 8.6 81 1.6 NW 17 24 9 13 1020.0 1019.7 0.0
27/05:00am 11.9 8.7 8.6 80 1.7 NNW 15 20 8 11 1019.9 1019.6 0.0
27/04:30am 11.7 8.2 8.7 82 1.5 NNW 17 20 9 11 1019.9 1019.6 0.0
27/04:00am 12.1 8.9 8.6 79 1.8 NNW 15 19 8 10 1019.8 1019.5 0.0
27/03:30am 11.9 8.7 8.6 80 1.7 NNW 15 20 8 11 1019.9 1019.6 0.0
27/03:00am 11.8 8.4 9.0 83 1.4 NNW 17 20 9 11 1020.1 1019.8 0.0
27/02:30am 12.3 9.2 8.8 79 1.8 NNW 15 19 8 10 1020.3 1020.0 0.0
27/02:00am 12.2 8.8 9.0 81 1.7 NNW 17 20 9 11 1020.5 1020.2 0.0
27/01:30am 11.8 9.2 9.2 84 1.3 N 13 15 7 8 1020.6 1020.3 0.0
27/01:00am 11.3 9.5 9.4 88 1.0 N 9 13 5 7 1020.7 1020.5 0.0
27/12:30am 11.1 9.0 9.7 91 0.7 N 11 13 6 7 1020.8 1020.6 0.0
27/12:00am 11.6 8.9 8.8 83 1.4 NNW 13 15 7 8 1021.3 1021.0 0.0
 
Date/Time
CST
Temp
°C
App
Temp
°C
Dew
Point
Rel
Hum
%
Delta-T
°C
Wind Press
QNH
hPa
Press
MSL
hPa
Rain
since 9 am
mm
Dir
 
Spd
km/h
Gust
km/h
Spd
kts
Gust
kts
26/11:30pm 11.8 8.6 8.6 81 1.6 NW 15 20 8 11 1021.3 1021.0 0.0
26/11:00pm 12.1 8.9 8.6 79 1.8 NW 15 20 8 11 1021.6 1021.3 0.0
26/10:30pm 12.9 9.2 8.0 72 2.5 NW 17 24 9 13 1021.9 1021.6 0.0
26/10:00pm 13.4 9.9 7.4 67 3.0 NNW 15 20 8 11 1021.9 1021.6 0.0
26/09:30pm 13.4 10.4 7.8 69 2.8 NNW 13 17 7 9 1021.9 1021.6 0.0
26/09:00pm 13.8 10.9 8.2 69 2.9 NW 13 17 7 9 1022.1 1021.8 0.0
26/08:30pm 14.0 11.1 8.2 68 3.0 NW 13 19 7 10 1022.1 1021.8 0.0
26/08:00pm 14.1 11.2 8.3 68 3.0 NW 13 19 7 10 1022.0 1021.7 0.0
26/07:30pm 14.2 10.9 7.9 66 3.2 NW 15 19 8 10 1021.8 1021.5 0.0
26/07:00pm 14.4 10.6 7.7 64 3.4 NW 17 22 9 12 1021.8 1021.5 0.0
26/06:30pm 14.7 10.9 7.7 63 3.6 NNW 17 22 9 12 1021.7 1021.4 0.0
26/06:00pm 14.7 10.9 7.7 63 3.6 N 17 22 9 12 1021.6 1021.3 0.0
26/05:30pm 14.7 11.3 7.7 63 3.6 NNW 15 19 8 10 1021.6 1021.3 0.0
26/05:00pm 15.5 12.6 8.0 61 3.9 NW 13 20 7 11 1021.5 1021.2 0.0
26/04:30pm 15.6 13.5 8.4 62 3.7 WNW 9 13 5 7 1021.5 1021.2 0.0
26/04:00pm 15.8 13.7 8.3 61 3.9 NNW 9 13 5 7 1021.5 1021.2 0.0
26/03:30pm 16.3 14.0 9.0 62 3.8 N 11 17 6 9 1021.4 1021.1 0.0
26/03:00pm 16.2 12.9 7.9 58 4.3 N 15 22 8 12 1021.5 1021.2 0.0
26/02:30pm 16.6 14.2 8.8 60 4.1 NNW 11 15 6 8 1021.7 1021.4 0.0
26/02:00pm 16.1 13.4 8.8 62 3.8 NNW 13 19 7 10 1022.0 1021.7 0.0
26/01:30pm 15.5 12.4 9.0 65 3.4 NW 15 19 8 10 1022.5 1022.3 0.0
26/01:00pm 16.1 13.4 9.1 63 3.7 NW 13 20 7 11 1022.9 1022.7 0.0
26/12:30pm 16.8 13.3 8.8 59 4.2 NNW 17 24 9 13 1023.5 1023.2 0.0
26/12:00pm 16.3 13.2 9.0 62 3.8 N 15 24 8 13 1023.7 1023.4 0.0
26/11:30am 16.0 12.1 8.5 61 3.9 N 19 28 10 15 1024.4 1024.2 0.0
26/11:00am 15.6 11.2 7.6 59 4.1 NNW 20 28 11 15 1024.9 1024.7 0.0
26/10:30am 15.4 12.4 7.7 60 3.9 N 13 20 7 11 1025.0 1024.8 0.0
26/10:00am 14.1 10.3 7.4 64 3.4 N 17 22 9 12 1025.4 1025.1 0.0
26/09:30am 13.8 10.7 7.3 65 3.3 N 13 17 7 9 1025.4 1025.1 0.0
26/09:00am 13.4 10.0 7.6 68 2.9 N 15 19 8 10 1025.6 1025.3 0.2
26/08:30am 13.1 9.6 7.1 67 3.0 N 15 20 8 11 1025.5 1025.2 0.2
26/08:00am 13.2 9.2 6.8 65 3.2 N 17 22 9 12 1025.5 1025.2 0.2
26/07:30am 12.6 9.0 6.9 68 2.8 N 15 19 8 10 1025.3 1025.0 0.2
26/07:00am 12.7 8.7 6.7 67 3.0 N 17 20 9 11 1025.4 1025.1 0.2
26/06:30am 12.7 8.7 6.7 67 2.9 N 17 20 9 11 1025.4 1025.1 0.2
26/06:00am 12.7 9.1 6.7 67 2.9 N 15 22 8 12 1025.3 1025.0 0.2
26/05:30am 12.3 8.2 6.4 67 2.9 N 17 24 9 13 1025.2 1024.9 0.2
26/05:00am 12.3 8.4 7.0 70 2.6 NNE 17 20 9 11 1025.3 1025.0 0.2
26/04:30am 12.3 8.8 7.0 70 2.6 NNE 15 20 8 11 1025.4 1025.1 0.2
26/04:00am 12.6 9.1 7.1 69 2.7 NNE 15 19 8 10 1025.3 1025.0 0.2
26/03:30am 11.5 8.7 7.0 74 2.2 ENE 11 15 6 8 1025.2 1024.9 0.2
26/03:00am 11.9 8.6 6.6 70 2.6 ENE 13 15 7 8 1025.4 1025.1 0.2
26/02:30am 11.7 8.9 6.8 72 2.4 NNE 11 15 6 8 1025.9 1025.7 0.2
26/02:00am 12.0 8.8 6.9 71 2.5 NE 13 20 7 11 1025.9 1025.7 0.2
26/01:30am 12.0 7.8 7.3 73 2.3 NE 19 24 10 13 1026.2 1026.0 0.2
26/01:00am 11.8 6.8 7.9 77 2.0 NE 24 33 13 18 1026.0 1025.8 0.2
26/12:30am 11.4 6.8 8.1 80 1.7 ENE 22 28 12 15 1025.9 1025.7 0.2
26/12:00am 11.7 7.5 8.2 79 1.8 ENE 20 30 11 16 1026.0 1025.8 0.2
 
Date/Time
CST
Temp
°C
App
Temp
°C
Dew
Point
Rel
Hum
%
Delta-T
°C
Wind Press
QNH
hPa
Press
MSL
hPa
Rain
since 9 am
mm
Dir
 
Spd
km/h
Gust
km/h
Spd
kts
Gust
kts
25/11:30pm 11.9 7.6 7.8 76 2.0 ENE 20 26 11 14 1026.9 1026.7 0.2
25/11:00pm 11.7 7.3 7.6 76 2.0 ENE 20 24 11 13 1027.3 1027.0 0.2
25/10:30pm 11.6 7.3 7.9 78 1.8 ENE 20 24 11 13 1027.3 1027.0 0.2
25/10:00pm 11.6 7.3 7.7 77 1.9 ENE 20 24 11 13 1027.1 1026.9 0.2
25/09:30pm 11.9 7.5 7.6 75 2.1 ENE 20 24 11 13 1027.0 1026.8 0.2
25/09:00pm 11.8 7.5 7.7 76 2.0 ENE 20 28 11 15 1027.1 1026.9 0.2
25/08:30pm 11.8 7.5 7.7 76 2.0 ENE 20 24 11 13 1027.3 1027.0 0.2
25/08:00pm 11.7 7.3 7.6 76 2.0 ENE 20 24 11 13 1027.3 1027.0 0.2
25/07:30pm 11.8 7.4 7.3 74 2.2 ENE 20 26 11 14 1027.1 1026.9 0.2
25/07:00pm 12.1 7.6 7.0 71 2.5 ENE 20 24 11 13 1027.0 1026.8 0.2
25/06:30pm 12.2 7.7 6.9 70 2.6 ENE 20 26 11 14 1026.8 1026.6 0.2
25/06:00pm 12.4 8.4 6.7 68 2.8 ENE 17 22 9 12 1026.6 1026.4 0.2
25/05:30pm 12.8 8.8 6.8 67 2.9 ENE 17 22 9 12 1026.4 1026.2 0.2
25/05:00pm 13.0 9.7 7.9 71 2.6 ENE 15 20 8 11 1026.3 1026.1 0.2
25/04:30pm 13.8 10.6 8.4 70 2.8 NE 15 20 8 11 1026.1 1025.9 0.2
25/04:00pm 14.6 11.3 8.1 65 3.3 NE 15 20 8 11 1025.8 1025.6 0.2
25/03:30pm 14.8 11.4 7.6 62 3.6 NE 15 20 8 11 1025.9 1025.7 0.2
25/03:00pm 15.0 11.9 7.3 60 3.9 NNE 13 17 7 9 1025.9 1025.7 0.2
25/02:30pm 15.2 11.9 6.5 56 4.3 N 13 20 7 11 1026.1 1025.9 0.2
25/02:00pm 15.6 13.3 7.6 59 4.1 N 9 19 5 10 1026.1 1025.9 0.2
25/01:30pm 15.4 12.5 6.7 56 4.3 NE 11 17 6 9 1026.0 1025.8 0.2
25/01:00pm 15.4 12.9 6.4 55 4.5 NNE 9 17 5 9 1026.3 1026.1 0.0
25/12:30pm 15.2 12.2 7.5 60 3.9 NNE 13 19 7 10 1026.6 1026.4 0.0
25/12:00pm 14.9 12.1 7.0 59 4.0 NNE 11 17 6 9 1027.3 1027.0 0.0
25/11:30am 14.8 11.7 7.1 60 3.9 N 13 20 7 11 1027.7 1027.5 0.0
25/11:00am 14.3 10.7 6.6 60 3.8 N 15 20 8 11 1028.5 1028.3 0.0
25/10:30am 14.0 9.9 6.4 60 3.7 N 17 26 9 14 1028.7 1028.5 0.0
25/10:00am 13.9 10.2 6.3 60 3.7 N 15 24 8 13 1028.8 1028.6 0.0
25/09:30am 13.4 10.4 7.6 68 2.9 NNE 13 19 7 10 1028.8 1028.6 0.0
25/09:00am 12.0 8.4 6.7 70 2.6 NNE 15 22 8 12 1028.8 1028.6 0.0
25/08:30am 11.6 8.3 6.5 71 2.5 NNE 13 19 7 10 1028.8 1028.6 0.0
25/08:00am 10.9 7.2 6.3 73 2.2 NNE 15 19 8 10 1028.7 1028.5 0.0
25/07:30am 11.0 8.0 6.0 71 2.4 NNE 11 17 6 9 1028.6 1028.4 0.0
25/07:00am 10.8 8.2 6.2 73 2.2 NNE 9 13 5 7 1028.5 1028.3 0.0
25/06:30am 10.8 8.3 6.4 74 2.1 NNE 9 13 5 7 1028.1 1027.9 0.0
25/06:00am 10.6 7.7 6.4 75 2.0 NE 11 15 6 8 1027.8 1027.6 0.0
25/05:30am 10.4 6.7 6.2 75 2.0 NE 15 19 8 10 1027.6 1027.4 0.0
25/05:00am 10.1 5.9 5.9 75 2.0 NE 17 20 9 11 1027.3 1027.0 0.0
25/04:30am 10.1 6.7 5.7 74 2.1 NE 13 15 7 8 1027.7 1027.5 0.0
25/04:00am 10.7 7.7 5.9 72 2.3 NNE 11 13 6 7 1027.9 1027.7 0.0
25/03:30am 10.9 8.5 5.4 69 2.6 NNE 7 9 4 5 1027.9 1027.7 0.0
25/03:00am 10.6 8.2 5.4 70 2.4 NE 7 9 4 5 1028.1 1027.9 0.0
25/02:30am 10.7 8.0 5.5 70 2.4 NNE 9 15 5 8 1028.2 1028.0 0.0
25/02:00am 10.2 7.1 5.4 72 2.3 NE 11 13 6 7 1028.1 1027.9 0.0
25/01:30am 10.2 6.3 5.4 72 2.2 NNE 15 19 8 10 1028.2 1028.0 0.0
25/01:00am 10.1 6.9 4.9 70 2.4 NNE 11 15 6 8 1027.8 1027.6 0.0
25/12:30am 9.6 5.3 5.2 74 2.0 NE 17 20 9 11 1027.9 1027.7 0.0
25/12:00am 10.3 6.8 5.3 71 2.3 NNE 13 17 7 9 1028.3 1028.1 0.0
 
Date/Time
CST
Temp
°C
App
Temp
°C
Dew
Point
Rel
Hum
%
Delta-T
°C
Wind Press
QNH
hPa
Press
MSL
hPa
Rain
since 9 am
mm
Dir
 
Spd
km/h
Gust
km/h
Spd
kts
Gust
kts
24/11:30pm 9.8 6.3 5.6 75 2.0 NE 13 17 7 9 1028.2 1028.0 0.0
24/11:00pm 9.9 6.5 5.9 76 1.9 ENE 13 19 7 10 1028.1 1027.9 0.0
24/10:30pm 9.8 5.8 6.5 80 1.6 ENE 17 20 9 11 1028.2 1028.0 0.0
24/10:00pm 9.7 5.8 7.0 83 1.3 E 17 20 9 11 1028.1 1027.9 0.0
24/09:30pm 9.9 6.7 7.0 82 1.4 ENE 13 17 7 9 1028.5 1028.3 0.0
24/09:00pm 9.9 6.0 7.0 82 1.4 ENE 17 20 9 11 1028.1 1027.9 0.0
24/08:30pm 9.8 6.3 7.1 83 1.3 ENE 15 17 8 9 1027.7 1027.5 0.0
24/08:00pm 9.9 5.6 6.8 81 1.5 ESE 19 24 10 13 1027.5 1027.3 0.0

Other Formats:

Comma delimited format used in spreadsheet applications
http://www.bom.gov.au/fwo/IDS60801/IDS60801.94678.axf

JavaScript Object Notation format (JSON) in row-major order
http://www.bom.gov.au/fwo/IDS60801/IDS60801.94678.json